Pacific Challenger — WDE251 — position and weather

sailwx.info

Track history (hours):
 
Tides and Currents Weather Stations Pressure Air Temp Water Temp Dewpoint Dewpoint Depression Visibility Wind Speed Wind Dir Waves Ship Positions

Pacific Challenger

Last reported at 2017-Oct-16 16:37 UTC. Time now 2017-Oct-18 02:37 UTC.
Position N 47°01' W 124°20'.

Length 35 m; draft 3.2 m.

Type: Fishing. MMSI: 367326360.

Date/timePositionNaut miles runAvg speedWind from/ knotsBaromVisibWave heightAir tempDewpointWater temp
2017-Oct-16 16:37N 47°01' W 124°20'110.8
2017-Oct-16 16:29N 47°00' W 124°19'5 9.6
2017-Oct-16 16:01N 46°57' W 124°15'6 7.1
2017-Oct-16 15:09N 46°54' W 124°06'2 0.1
2017-Oct-15 19:52N 46°55' W 124°10'5 8.8
2017-Oct-15 19:19N 46°57' W 124°16'5 0.2
2017-Oct-14 18:22N 47°02' W 124°20'410.6
2017-Oct-14 17:59N 46°59' W 124°16'510.4
2017-Oct-14 17:30N 46°55' W 124°11'1 0.1
2017-Oct-14 01:13N 46°55' W 124°10'210.8
2017-Oct-14 01:00N 46°55' W 124°13'6 0.2
2017-Oct-12 18:08N 46°60' W 124°19'631.1
2017-Oct-12 17:58N 46°56' W 124°14'2 3.8
2017-Oct-12 17:30N 46°55' W 124°11'2 0.2
2017-Oct-12 07:23N 46°55' W 124°08'3 8.0
2017-Oct-12 07:00N 46°55' W 124°12'4 0.1
2017-Oct-10 08:52N 46°55' W 124°07'0 0.0
2017-Oct-10 07:44N 46°55' W 124°07'0 0.0
2017-Oct-10 07:30N 46°55' W 124°07'0 0.0
2017-Oct-09 21:55N 46°54' W 124°06'0 0.0
2017-Oct-09 21:19N 46°54' W 124°06'0 0.0
2017-Oct-09 20:07N 46°54' W 124°06'0 0.0
2017-Oct-09 19:43N 46°54' W 124°06'0 0.0
2017-Oct-09 19:19N 46°54' W 124°06'0 0.0
2017-Oct-09 18:50N 46°54' W 124°06'0 0.0
2017-Oct-09 18:28N 46°54' W 124°06'0 0.0
2017-Oct-09 17:09N 46°54' W 124°06'0 0.0
2017-Oct-09 16:59N 46°54' W 124°06'0 0.0
2017-Oct-09 14:28N 46°54' W 124°06'0 0.0
2017-Oct-09 14:00N 46°54' W 124°06'0 0.0
2017-Oct-09 13:26N 46°54' W 124°06'0 0.0
2017-Oct-09 12:16N 46°54' W 124°06'0 0.0
2017-Oct-09 11:59N 46°54' W 124°06'0 0.0
2017-Oct-09 11:29N 46°54' W 124°06'0 0.0
2017-Oct-09 10:58N 46°54' W 124°06'0 0.0
2017-Oct-09 10:03N 46°54' W 124°06'0 0.0
2017-Oct-09 10:00N 46°54' W 124°06'3 5.2
2017-Oct-09 09:30N 46°55' W 124°10'2 4.6
2017-Oct-09 09:00N 46°55' W 124°13'510.0
2017-Oct-09 08:31N 46°59' W 124°18'3910.1
2017-Oct-09 04:39N 47°30' W 124°53'210.2
2017-Oct-09 04:28N 47°31' W 124°55'510.7
2017-Oct-09 04:00N 47°35' W 124°59'42 2.0
2017-Oct-08 06:57N 47°02' W 124°23'3 7.0
2017-Oct-08 06:30N 46°59' W 124°20'3 6.7
2017-Oct-08 06:00N 46°57' W 124°17'4 7.6
2017-Oct-08 05:30N 46°55' W 124°12'4 7.2
2017-Oct-08 05:00N 46°55' W 124°06'0 0.1
2017-Oct-08 03:44N 46°54' W 124°06'0 0.0
2017-Oct-08 03:19N 46°54' W 124°06'0 0.0
2017-Oct-08 02:59N 46°54' W 124°06'0 0.0
2017-Oct-08 02:30N 46°54' W 124°06'0 0.0
2017-Oct-08 02:00N 46°54' W 124°06'0 0.0
2017-Oct-08 01:29N 46°54' W 124°06'0 0.0
2017-Oct-08 00:57N 46°54' W 124°06'0 0.0
2017-Oct-08 00:30N 46°54' W 124°06'0 0.0
2017-Oct-08 00:00N 46°54' W 124°06'0 0.0
2017-Oct-07 23:31N 46°54' W 124°06'0 0.1
2017-Oct-07 22:59N 46°54' W 124°06'0 0.0
2017-Oct-07 22:18N 46°54' W 124°06'0 0.0
2017-Oct-07 21:56N 46°54' W 124°06'0 0.0
2017-Oct-07 21:26N 46°54' W 124°06'0 0.0
2017-Oct-07 20:58N 46°54' W 124°06'0 0.0
2017-Oct-07 20:29N 46°54' W 124°06'0 0.0
2017-Oct-07 19:56N 46°54' W 124°06'0 0.0
2017-Oct-07 19:29N 46°54' W 124°06'0 0.0
2017-Oct-07 18:57N 46°54' W 124°06'0 0.0
2017-Oct-07 18:26N 46°54' W 124°06'0 0.0
2017-Oct-07 15:51N 46°54' W 124°06'0 0.0
2017-Oct-07 15:28N 46°54' W 124°06'0 0.0
2017-Oct-07 14:58N 46°54' W 124°06'0 0.0
2017-Oct-07 14:26N 46°54' W 124°06'0 0.0
2017-Oct-07 13:57N 46°54' W 124°06'0 0.4
2017-Oct-07 13:29N 46°55' W 124°06'3 6.4
2017-Oct-07 13:00N 46°55' W 124°11'4 7.4
2017-Oct-07 12:30N 46°57' W 124°16'  
Track history (hours):
 
Tides and Currents Weather Stations Pressure Air Temp Water Temp Dewpoint Dewpoint Depression Visibility Wind Speed Wind Dir Waves Ship Positions

Pacific Challenger

Last reported at 2017-Oct-16 16:37 UTC. Time now 2017-Oct-18 02:37 UTC.
Position N 47°01' W 124°20'.

Length 35 m; draft 3.2 m.

Type: Fishing. MMSI: 367326360.

Date/timePositionNaut miles runAvg speedWind from/ knotsBaromVisibWave heightAir tempDewpointWater temp
2017-Oct-16 16:37N 47°01' W 124°20'110.8
2017-Oct-16 16:29N 47°00' W 124°19'5 9.6
2017-Oct-16 16:01N 46°57' W 124°15'6 7.1
2017-Oct-16 15:09N 46°54' W 124°06'2 0.1
2017-Oct-15 19:52N 46°55' W 124°10'5 8.8
2017-Oct-15 19:19N 46°57' W 124°16'5 0.2
2017-Oct-14 18:22N 47°02' W 124°20'410.6
2017-Oct-14 17:59N 46°59' W 124°16'510.4
2017-Oct-14 17:30N 46°55' W 124°11'1 0.1
2017-Oct-14 01:13N 46°55' W 124°10'210.8
2017-Oct-14 01:00N 46°55' W 124°13'6 0.2
2017-Oct-12 18:08N 46°60' W 124°19'631.1
2017-Oct-12 17:58N 46°56' W 124°14'2 3.8
2017-Oct-12 17:30N 46°55' W 124°11'2 0.2
2017-Oct-12 07:23N 46°55' W 124°08'3 8.0
2017-Oct-12 07:00N 46°55' W 124°12'4 0.1
2017-Oct-10 08:52N 46°55' W 124°07'0 0.0
2017-Oct-10 07:44N 46°55' W 124°07'0 0.0
2017-Oct-10 07:30N 46°55' W 124°07'0 0.0
2017-Oct-09 21:55N 46°54' W 124°06'0 0.0
2017-Oct-09 21:19N 46°54' W 124°06'0 0.0
2017-Oct-09 20:07N 46°54' W 124°06'0 0.0
2017-Oct-09 19:43N 46°54' W 124°06'0 0.0
2017-Oct-09 19:19N 46°54' W 124°06'0 0.0
2017-Oct-09 18:50N 46°54' W 124°06'0 0.0
2017-Oct-09 18:28N 46°54' W 124°06'0 0.0
2017-Oct-09 17:09N 46°54' W 124°06'0 0.0
2017-Oct-09 16:59N 46°54' W 124°06'0 0.0
2017-Oct-09 14:28N 46°54' W 124°06'0 0.0
2017-Oct-09 14:00N 46°54' W 124°06'0 0.0
2017-Oct-09 13:26N 46°54' W 124°06'0 0.0
2017-Oct-09 12:16N 46°54' W 124°06'0 0.0
2017-Oct-09 11:59N 46°54' W 124°06'0 0.0
2017-Oct-09 11:29N 46°54' W 124°06'0 0.0
2017-Oct-09 10:58N 46°54' W 124°06'0 0.0
2017-Oct-09 10:03N 46°54' W 124°06'0 0.0
2017-Oct-09 10:00N 46°54' W 124°06'3 5.2
2017-Oct-09 09:30N 46°55' W 124°10'2 4.6
2017-Oct-09 09:00N 46°55' W 124°13'510.0
2017-Oct-09 08:31N 46°59' W 124°18'3910.1
2017-Oct-09 04:39N 47°30' W 124°53'210.2
2017-Oct-09 04:28N 47°31' W 124°55'510.7
2017-Oct-09 04:00N 47°35' W 124°59'42 2.0
2017-Oct-08 06:57N 47°02' W 124°23'3 7.0
2017-Oct-08 06:30N 46°59' W 124°20'3 6.7
2017-Oct-08 06:00N 46°57' W 124°17'4 7.6
2017-Oct-08 05:30N 46°55' W 124°12'4 7.2
2017-Oct-08 05:00N 46°55' W 124°06'0 0.1
2017-Oct-08 03:44N 46°54' W 124°06'0 0.0
2017-Oct-08 03:19N 46°54' W 124°06'0 0.0
2017-Oct-08 02:59N 46°54' W 124°06'0 0.0
2017-Oct-08 02:30N 46°54' W 124°06'0 0.0
2017-Oct-08 02:00N 46°54' W 124°06'0 0.0
2017-Oct-08 01:29N 46°54' W 124°06'0 0.0
2017-Oct-08 00:57N 46°54' W 124°06'0 0.0
2017-Oct-08 00:30N 46°54' W 124°06'0 0.0
2017-Oct-08 00:00N 46°54' W 124°06'0 0.0
2017-Oct-07 23:31N 46°54' W 124°06'0 0.1
2017-Oct-07 22:59N 46°54' W 124°06'0 0.0
2017-Oct-07 22:18N 46°54' W 124°06'0 0.0
2017-Oct-07 21:56N 46°54' W 124°06'0 0.0
2017-Oct-07 21:26N 46°54' W 124°06'0 0.0
2017-Oct-07 20:58N 46°54' W 124°06'0 0.0
2017-Oct-07 20:29N 46°54' W 124°06'0 0.0
2017-Oct-07 19:56N 46°54' W 124°06'0 0.0
2017-Oct-07 19:29N 46°54' W 124°06'0 0.0
2017-Oct-07 18:57N 46°54' W 124°06'0 0.0
2017-Oct-07 18:26N 46°54' W 124°06'0 0.0
2017-Oct-07 15:51N 46°54' W 124°06'0 0.0
2017-Oct-07 15:28N 46°54' W 124°06'0 0.0
2017-Oct-07 14:58N 46°54' W 124°06'0 0.0
2017-Oct-07 14:26N 46°54' W 124°06'0 0.0
2017-Oct-07 13:57N 46°54' W 124°06'0 0.4
2017-Oct-07 13:29N 46°55' W 124°06'3 6.4
2017-Oct-07 13:00N 46°55' W 124°11'4 7.4
2017-Oct-07 12:30N 46°57' W 124°16'  

Dump ship's entire track history